sensor_id;sensor_type;location;lat;lon;timestamp;pressure;altitude;pressure_sealevel;temperature;humidity
73242;BME280;65659;49.234;-2.094;2024-03-17T00:01:28;100738.70;;;14.74;52.97
73242;BME280;65659;49.234;-2.094;2024-03-17T00:03:54;100737.37;;;14.69;53.10
73242;BME280;65659;49.234;-2.094;2024-03-17T00:06:19;100732.45;;;14.67;53.17
73242;BME280;65659;49.234;-2.094;2024-03-17T00:08:45;100730.72;;;14.73;53.10
73242;BME280;65659;49.234;-2.094;2024-03-17T00:11:10;100724.07;;;14.79;53.05
73242;BME280;65659;49.234;-2.094;2024-03-17T00:13:35;100717.00;;;14.65;53.35
73242;BME280;65659;49.234;-2.094;2024-03-17T00:16:01;100719.29;;;14.67;53.36
73242;BME280;65659;49.234;-2.094;2024-03-17T00:18:26;100710.98;;;14.65;53.43
73242;BME280;65659;49.234;-2.094;2024-03-17T00:20:52;100707.84;;;14.63;53.47
73242;BME280;65659;49.234;-2.094;2024-03-17T00:23:17;100705.58;;;14.66;53.53
73242;BME280;65659;49.234;-2.094;2024-03-17T00:25:42;100702.55;;;14.91;53.58
73242;BME280;65659;49.234;-2.094;2024-03-17T00:28:08;100700.61;;;14.79;53.81
73242;BME280;65659;49.234;-2.094;2024-03-17T00:30:34;100702.02;;;14.43;54.01
73242;BME280;65659;49.234;-2.094;2024-03-17T00:32:59;100700.16;;;14.15;54.15
73242;BME280;65659;49.234;-2.094;2024-03-17T00:35:25;100700.85;;;14.25;54.37
73242;BME280;65659;49.234;-2.094;2024-03-17T00:37:50;100700.33;;;14.54;54.27
73242;BME280;65659;49.234;-2.094;2024-03-17T00:40:16;100697.03;;;14.50;54.35
73242;BME280;65659;49.234;-2.094;2024-03-17T00:42:41;100699.77;;;14.32;54.25
73242;BME280;65659;49.234;-2.094;2024-03-17T00:45:06;100698.60;;;14.26;54.32
73242;BME280;65659;49.234;-2.094;2024-03-17T00:47:31;100693.88;;;14.58;54.23
73242;BME280;65659;49.234;-2.094;2024-03-17T00:49:56;100686.91;;;14.51;54.33
73242;BME280;65659;49.234;-2.094;2024-03-17T00:52:22;100679.10;;;14.48;54.41
73242;BME280;65659;49.234;-2.094;2024-03-17T00:54:47;100670.51;;;14.53;54.33
73242;BME280;65659;49.234;-2.094;2024-03-17T00:57:13;100658.00;;;14.44;54.53
73242;BME280;65659;49.234;-2.094;2024-03-17T00:59:38;100655.30;;;14.23;54.52
73242;BME280;65659;49.234;-2.094;2024-03-17T01:02:04;100653.17;;;14.37;54.69
73242;BME280;65659;49.234;-2.094;2024-03-17T01:04:30;100650.62;;;14.47;54.54
73242;BME280;65659;49.234;-2.094;2024-03-17T01:06:55;100653.51;;;14.43;54.62
73242;BME280;65659;49.234;-2.094;2024-03-17T01:09:21;100648.95;;;14.52;54.56
73242;BME280;65659;49.234;-2.094;2024-03-17T01:11:46;100642.93;;;14.36;54.79
73242;BME280;65659;49.234;-2.094;2024-03-17T01:14:12;100643.01;;;14.20;54.71
73242;BME280;65659;49.234;-2.094;2024-03-17T01:16:37;100639.37;;;14.42;54.71
73242;BME280;65659;49.234;-2.094;2024-03-17T01:19:02;100641.85;;;14.06;55.03
73242;BME280;65659;49.234;-2.094;2024-03-17T01:21:27;100637.83;;;14.14;54.88
73242;BME280;65659;49.234;-2.094;2024-03-17T01:23:53;100629.08;;;14.06;55.06
73242;BME280;65659;49.234;-2.094;2024-03-17T01:26:18;100629.49;;;14.15;54.90
73242;BME280;65659;49.234;-2.094;2024-03-17T01:28:44;100628.42;;;14.40;54.94
73242;BME280;65659;49.234;-2.094;2024-03-17T01:31:10;100625.37;;;14.20;54.87
73242;BME280;65659;49.234;-2.094;2024-03-17T01:33:35;100620.73;;;14.41;54.97
73242;BME280;65659;49.234;-2.094;2024-03-17T01:36:01;100616.71;;;14.43;55.04
73242;BME280;65659;49.234;-2.094;2024-03-17T01:38:26;100615.97;;;14.45;54.89
73242;BME280;65659;49.234;-2.094;2024-03-17T01:40:51;100612.36;;;14.38;55.12
73242;BME280;65659;49.234;-2.094;2024-03-17T01:43:17;100609.92;;;14.33;55.27
73242;BME280;65659;49.234;-2.094;2024-03-17T01:45:42;100598.38;;;14.18;55.12
73242;BME280;65659;49.234;-2.094;2024-03-17T01:48:13;100593.81;;;14.45;55.16
73242;BME280;65659;49.234;-2.094;2024-03-17T01:50:35;100593.48;;;14.36;55.27
73242;BME280;65659;49.234;-2.094;2024-03-17T01:53:01;100588.97;;;14.61;55.29
73242;BME280;65659;49.234;-2.094;2024-03-17T01:55:25;100589.75;;;14.06;55.54
73242;BME280;65659;49.234;-2.094;2024-03-17T01:57:52;100586.85;;;14.41;55.37
73242;BME280;65659;49.234;-2.094;2024-03-17T02:00:16;100580.68;;;14.43;55.44
73242;BME280;65659;49.234;-2.094;2024-03-17T02:02:41;100573.54;;;14.37;55.59
73242;BME280;65659;49.234;-2.094;2024-03-17T02:05:07;100570.04;;;14.64;55.65
73242;BME280;65659;49.234;-2.094;2024-03-17T02:07:33;100574.95;;;14.36;55.76
73242;BME280;65659;49.234;-2.094;2024-03-17T02:09:58;100567.33;;;14.46;55.58
73242;BME280;65659;49.234;-2.094;2024-03-17T02:12:24;100556.07;;;14.37;55.78
73242;BME280;65659;49.234;-2.094;2024-03-17T02:14:49;100557.78;;;14.39;55.80
73242;BME280;65659;49.234;-2.094;2024-03-17T02:17:15;100556.59;;;14.49;55.71
73242;BME280;65659;49.234;-2.094;2024-03-17T02:19:40;100549.66;;;14.48;55.73
73242;BME280;65659;49.234;-2.094;2024-03-17T02:22:09;100547.85;;;14.44;55.82
73242;BME280;65659;49.234;-2.094;2024-03-17T02:24:31;100537.32;;;14.42;55.93
73242;BME280;65659;49.234;-2.094;2024-03-17T02:26:57;100536.75;;;14.43;55.98
73242;BME280;65659;49.234;-2.094;2024-03-17T02:29:22;100534.47;;;14.20;55.97
73242;BME280;65659;49.234;-2.094;2024-03-17T02:31:48;100538.70;;;14.46;56.00
73242;BME280;65659;49.234;-2.094;2024-03-17T02:34:14;100536.16;;;14.46;56.05
73242;BME280;65659;49.234;-2.094;2024-03-17T02:36:39;100535.24;;;14.41;56.20
73242;BME280;65659;49.234;-2.094;2024-03-17T02:39:05;100527.00;;;14.34;56.41
73242;BME280;65659;49.234;-2.094;2024-03-17T02:41:30;100526.69;;;13.90;56.35
73242;BME280;65659;49.234;-2.094;2024-03-17T02:43:56;100524.37;;;14.36;56.37
73242;BME280;65659;49.234;-2.094;2024-03-17T02:46:22;100522.75;;;14.34;56.48
73242;BME280;65659;49.234;-2.094;2024-03-17T02:48:49;100514.53;;;14.16;56.48
73242;BME280;65659;49.234;-2.094;2024-03-17T02:51:13;100513.91;;;14.39;56.42
73242;BME280;65659;49.234;-2.094;2024-03-17T02:53:39;100507.02;;;14.32;56.63
73242;BME280;65659;49.234;-2.094;2024-03-17T02:56:04;100507.12;;;14.32;56.62
73242;BME280;65659;49.234;-2.094;2024-03-17T02:58:29;100501.29;;;14.30;56.75
73242;BME280;65659;49.234;-2.094;2024-03-17T03:00:55;100498.30;;;14.33;56.75
73242;BME280;65659;49.234;-2.094;2024-03-17T03:03:20;100501.79;;;14.33;56.80
73242;BME280;65659;49.234;-2.094;2024-03-17T03:05:46;100490.20;;;14.33;56.82
73242;BME280;65659;49.234;-2.094;2024-03-17T03:08:11;100488.25;;;14.31;56.99
73242;BME280;65659;49.234;-2.094;2024-03-17T03:10:37;100483.42;;;14.35;56.99
73242;BME280;65659;49.234;-2.094;2024-03-17T03:13:03;100470.89;;;14.33;57.04
73242;BME280;65659;49.234;-2.094;2024-03-17T03:15:31;100469.32;;;14.42;56.97
73242;BME280;65659;49.234;-2.094;2024-03-17T03:17:54;100462.22;;;14.33;57.15
73242;BME280;65659;49.234;-2.094;2024-03-17T03:20:19;100460.39;;;14.07;57.17
73242;BME280;65659;49.234;-2.094;2024-03-17T03:22:45;100455.23;;;14.28;57.28
73242;BME280;65659;49.234;-2.094;2024-03-17T03:25:11;100445.99;;;14.38;57.16
73242;BME280;65659;49.234;-2.094;2024-03-17T03:27:36;100438.83;;;14.35;57.17
73242;BME280;65659;49.234;-2.094;2024-03-17T03:30:02;100435.83;;;14.35;57.17
73242;BME280;65659;49.234;-2.094;2024-03-17T03:32:27;100439.68;;;14.33;57.24
73242;BME280;65659;49.234;-2.094;2024-03-17T03:34:52;100435.83;;;14.37;57.22
73242;BME280;65659;49.234;-2.094;2024-03-17T03:37:18;100436.67;;;14.18;57.13
73242;BME280;65659;49.234;-2.094;2024-03-17T03:39:43;100432.79;;;14.49;57.04
73242;BME280;65659;49.234;-2.094;2024-03-17T03:42:09;100435.47;;;14.41;57.12
73242;BME280;65659;49.234;-2.094;2024-03-17T03:44:35;100435.56;;;14.33;57.31
73242;BME280;65659;49.234;-2.094;2024-03-17T03:47:00;100429.60;;;14.33;57.33
73242;BME280;65659;49.234;-2.094;2024-03-17T03:49:25;100430.88;;;14.30;57.45
73242;BME280;65659;49.234;-2.094;2024-03-17T03:51:51;100437.79;;;14.35;57.36
73242;BME280;65659;49.234;-2.094;2024-03-17T03:54:17;100428.60;;;14.16;57.29
73242;BME280;65659;49.234;-2.094;2024-03-17T03:56:42;100424.66;;;14.42;57.27
73242;BME280;65659;49.234;-2.094;2024-03-17T03:59:08;100426.27;;;14.62;57.31
73242;BME280;65659;49.234;-2.094;2024-03-17T04:01:33;100420.09;;;14.30;57.43
73242;BME280;65659;49.234;-2.094;2024-03-17T04:03:59;100425.79;;;14.30;57.47
73242;BME280;65659;49.234;-2.094;2024-03-17T04:06:23;100420.24;;;14.29;57.45
73242;BME280;65659;49.234;-2.094;2024-03-17T04:08:49;100421.42;;;14.28;57.49
73242;BME280;65659;49.234;-2.094;2024-03-17T04:11:15;100410.96;;;14.25;57.51
73242;BME280;65659;49.234;-2.094;2024-03-17T04:13:40;100418.01;;;14.23;57.58
73242;BME280;65659;49.234;-2.094;2024-03-17T04:16:07;100412.68;;;14.35;57.40
73242;BME280;65659;49.234;-2.094;2024-03-17T04:18:31;100411.55;;;14.23;57.64
73242;BME280;65659;49.234;-2.094;2024-03-17T04:20:56;100410.04;;;14.22;57.67
73242;BME280;65659;49.234;-2.094;2024-03-17T04:23:22;100411.66;;;14.22;57.58
73242;BME280;65659;49.234;-2.094;2024-03-17T04:25:48;100410.53;;;14.13;57.63
73242;BME280;65659;49.234;-2.094;2024-03-17T04:28:13;100411.38;;;14.18;57.63
73242;BME280;65659;49.234;-2.094;2024-03-17T04:30:39;100418.06;;;14.02;57.82
73242;BME280;65659;49.234;-2.094;2024-03-17T04:33:05;100420.00;;;14.18;58.03
73242;BME280;65659;49.234;-2.094;2024-03-17T04:35:30;100422.89;;;14.09;57.68
73242;BME280;65659;49.234;-2.094;2024-03-17T04:37:55;100420.54;;;13.90;58.02
73242;BME280;65659;49.234;-2.094;2024-03-17T04:40:21;100415.22;;;13.80;57.77
73242;BME280;65659;49.234;-2.094;2024-03-17T04:42:47;100419.27;;;13.95;57.84
73242;BME280;65659;49.234;-2.094;2024-03-17T04:45:12;100414.51;;;13.82;58.06
73242;BME280;65659;49.234;-2.094;2024-03-17T04:47:38;100406.61;;;14.00;57.68
73242;BME280;65659;49.234;-2.094;2024-03-17T04:50:05;100409.74;;;13.71;57.88
73242;BME280;65659;49.234;-2.094;2024-03-17T04:52:29;100409.60;;;13.95;57.84
73242;BME280;65659;49.234;-2.094;2024-03-17T04:54:55;100409.13;;;13.92;57.97
73242;BME280;65659;49.234;-2.094;2024-03-17T04:57:20;100406.00;;;14.09;58.13
73242;BME280;65659;49.234;-2.094;2024-03-17T04:59:46;100399.53;;;14.30;58.20
73242;BME280;65659;49.234;-2.094;2024-03-17T05:02:11;100394.36;;;13.68;58.03
73242;BME280;65659;49.234;-2.094;2024-03-17T05:04:37;100391.87;;;13.84;58.18
73242;BME280;65659;49.234;-2.094;2024-03-17T05:07:02;100395.95;;;13.80;58.33
73242;BME280;65659;49.234;-2.094;2024-03-17T05:09:27;100396.29;;;14.04;58.45
73242;BME280;65659;49.234;-2.094;2024-03-17T05:11:53;100397.25;;;14.25;58.38
73242;BME280;65659;49.234;-2.094;2024-03-17T05:14:19;100397.09;;;13.80;58.41
73242;BME280;65659;49.234;-2.094;2024-03-17T05:16:44;100397.67;;;13.84;58.31
73242;BME280;65659;49.234;-2.094;2024-03-17T05:19:10;100393.58;;;13.88;58.38
73242;BME280;65659;49.234;-2.094;2024-03-17T05:21:35;100388.88;;;13.90;58.35
73242;BME280;65659;49.234;-2.094;2024-03-17T05:24:02;100396.44;;;13.92;58.38
73242;BME280;65659;49.234;-2.094;2024-03-17T05:26:26;100394.49;;;13.93;58.45
73242;BME280;65659;49.234;-2.094;2024-03-17T05:28:52;100394.11;;;13.71;58.52
73242;BME280;65659;49.234;-2.094;2024-03-17T05:31:16;100396.45;;;13.98;58.41
73242;BME280;65659;49.234;-2.094;2024-03-17T05:33:43;100395.08;;;13.99;58.39
73242;BME280;65659;49.234;-2.094;2024-03-17T05:36:07;100396.48;;;13.98;58.39
73242;BME280;65659;49.234;-2.094;2024-03-17T05:38:33;100396.21;;;14.33;58.28
73242;BME280;65659;49.234;-2.094;2024-03-17T05:41:00;100395.78;;;14.08;58.33
73242;BME280;65659;49.234;-2.094;2024-03-17T05:43:24;100398.02;;;14.04;58.40
73242;BME280;65659;49.234;-2.094;2024-03-17T05:45:50;100397.54;;;14.04;58.39
73242;BME280;65659;49.234;-2.094;2024-03-17T05:48:16;100391.22;;;13.76;58.48
73242;BME280;65659;49.234;-2.094;2024-03-17T05:50:40;100389.25;;;14.26;58.41
73242;BME280;65659;49.234;-2.094;2024-03-17T05:53:11;100391.78;;;13.96;58.52
73242;BME280;65659;49.234;-2.094;2024-03-17T05:55:31;100390.49;;;13.94;58.60
73242;BME280;65659;49.234;-2.094;2024-03-17T05:57:57;100389.95;;;13.97;58.55
73242;BME280;65659;49.234;-2.094;2024-03-17T06:00:22;100390.60;;;13.95;58.66
73242;BME280;65659;49.234;-2.094;2024-03-17T06:02:48;100388.54;;;14.11;58.33
73242;BME280;65659;49.234;-2.094;2024-03-17T06:05:13;100385.56;;;14.11;58.30
73242;BME280;65659;49.234;-2.094;2024-03-17T06:07:38;100385.95;;;14.11;58.33
73242;BME280;65659;49.234;-2.094;2024-03-17T06:10:05;100390.89;;;13.90;58.72
73242;BME280;65659;49.234;-2.094;2024-03-17T06:12:30;100390.68;;;13.99;58.64
73242;BME280;65659;49.234;-2.094;2024-03-17T06:14:55;100393.35;;;13.91;58.78
73242;BME280;65659;49.234;-2.094;2024-03-17T06:17:21;100392.58;;;13.95;58.73
73242;BME280;65659;49.234;-2.094;2024-03-17T06:19:46;100393.97;;;13.94;58.76
73242;BME280;65659;49.234;-2.094;2024-03-17T06:22:12;100399.94;;;14.00;58.65
73242;BME280;65659;49.234;-2.094;2024-03-17T06:24:37;100399.79;;;14.04;58.58
73242;BME280;65659;49.234;-2.094;2024-03-17T06:27:03;100396.48;;;13.95;58.72
73242;BME280;65659;49.234;-2.094;2024-03-17T06:29:28;100392.09;;;13.80;59.00
73242;BME280;65659;49.234;-2.094;2024-03-17T06:31:54;100393.09;;;13.85;59.02
73242;BME280;65659;49.234;-2.094;2024-03-17T06:34:19;100391.25;;;13.72;59.24
73242;BME280;65659;49.234;-2.094;2024-03-17T06:36:50;100396.02;;;13.75;59.03
73242;BME280;65659;49.234;-2.094;2024-03-17T06:39:11;100390.58;;;13.77;59.02
73242;BME280;65659;49.234;-2.094;2024-03-17T06:41:36;100393.12;;;14.04;58.89
73242;BME280;65659;49.234;-2.094;2024-03-17T06:44:02;100395.39;;;14.37;58.75
73242;BME280;65659;49.234;-2.094;2024-03-17T06:46:28;100395.89;;;13.93;58.58
73242;BME280;65659;49.234;-2.094;2024-03-17T06:48:52;100406.33;;;13.86;58.70
73242;BME280;65659;49.234;-2.094;2024-03-17T06:51:18;100404.48;;;13.58;58.70
73242;BME280;65659;49.234;-2.094;2024-03-17T06:53:43;100397.89;;;13.71;58.92
73242;BME280;65659;49.234;-2.094;2024-03-17T06:56:09;100409.90;;;13.67;59.09
73242;BME280;65659;49.234;-2.094;2024-03-17T06:58:34;100413.82;;;13.78;58.85
73242;BME280;65659;49.234;-2.094;2024-03-17T07:01:01;100415.25;;;13.86;58.66
73242;BME280;65659;49.234;-2.094;2024-03-17T07:03:27;100419.54;;;13.81;58.78
73242;BME280;65659;49.234;-2.094;2024-03-17T07:05:53;100417.53;;;13.82;58.84
73242;BME280;65659;49.234;-2.094;2024-03-17T07:08:17;100416.69;;;13.82;58.89
73242;BME280;65659;49.234;-2.094;2024-03-17T07:10:42;100412.50;;;14.08;58.89
73242;BME280;65659;49.234;-2.094;2024-03-17T07:13:07;100417.09;;;13.83;58.98
73242;BME280;65659;49.234;-2.094;2024-03-17T07:15:33;100416.79;;;13.60;58.93
73242;BME280;65659;49.234;-2.094;2024-03-17T07:17:59;100411.46;;;13.90;58.89
73242;BME280;65659;49.234;-2.094;2024-03-17T07:20:24;100410.24;;;13.89;58.91
73242;BME280;65659;49.234;-2.094;2024-03-17T07:22:50;100404.12;;;13.86;59.14
73242;BME280;65659;49.234;-2.094;2024-03-17T07:25:16;100413.83;;;13.94;59.07
73242;BME280;65659;49.234;-2.094;2024-03-17T07:27:41;100411.79;;;14.17;59.18
73242;BME280;65659;49.234;-2.094;2024-03-17T07:30:08;100414.33;;;13.98;59.12
73242;BME280;65659;49.234;-2.094;2024-03-17T07:32:33;100415.02;;;13.99;59.18
73242;BME280;65659;49.234;-2.094;2024-03-17T07:34:59;100417.37;;;14.00;59.11
73242;BME280;65659;49.234;-2.094;2024-03-17T07:37:24;100427.96;;;13.81;59.10
73242;BME280;65659;49.234;-2.094;2024-03-17T07:39:50;100431.67;;;14.14;58.95
73242;BME280;65659;49.234;-2.094;2024-03-17T07:42:16;100433.17;;;14.22;58.92
73242;BME280;65659;49.234;-2.094;2024-03-17T07:44:44;100438.26;;;13.72;59.10
73242;BME280;65659;49.234;-2.094;2024-03-17T07:47:08;100437.70;;;14.12;58.84
73242;BME280;65659;49.234;-2.094;2024-03-17T07:49:33;100438.83;;;14.38;58.81
73242;BME280;65659;49.234;-2.094;2024-03-17T07:51:59;100436.60;;;14.44;58.72
73242;BME280;65659;49.234;-2.094;2024-03-17T07:54:25;100437.12;;;14.21;58.82
73242;BME280;65659;49.234;-2.094;2024-03-17T07:56:51;100443.15;;;14.43;58.86
73242;BME280;65659;49.234;-2.094;2024-03-17T07:59:16;100453.63;;;14.11;58.73
73242;BME280;65659;49.234;-2.094;2024-03-17T08:01:42;100455.52;;;14.37;58.79
73242;BME280;65659;49.234;-2.094;2024-03-17T08:04:08;100455.94;;;14.51;58.55
73242;BME280;65659;49.234;-2.094;2024-03-17T08:06:34;100470.62;;;14.49;58.72
73242;BME280;65659;49.234;-2.094;2024-03-17T08:09:00;100473.28;;;14.62;58.46
73242;BME280;65659;49.234;-2.094;2024-03-17T08:11:25;100468.14;;;14.52;58.74
73242;BME280;65659;49.234;-2.094;2024-03-17T08:13:51;100473.84;;;14.62;58.52
73242;BME280;65659;49.234;-2.094;2024-03-17T08:16:17;100472.99;;;14.35;58.57
73242;BME280;65659;49.234;-2.094;2024-03-17T08:18:43;100467.89;;;14.67;58.46
73242;BME280;65659;49.234;-2.094;2024-03-17T08:21:09;100473.51;;;14.84;58.58
73242;BME280;65659;49.234;-2.094;2024-03-17T08:23:35;100476.92;;;14.65;58.55
73242;BME280;65659;49.234;-2.094;2024-03-17T08:26:01;100484.44;;;14.72;58.48
73242;BME280;65659;49.234;-2.094;2024-03-17T08:28:26;100480.66;;;14.81;58.39
73242;BME280;65659;49.234;-2.094;2024-03-17T08:30:52;100475.97;;;14.87;58.36
73242;BME280;65659;49.234;-2.094;2024-03-17T08:33:17;100474.03;;;14.67;58.31
73242;BME280;65659;49.234;-2.094;2024-03-17T08:35:52;100477.42;;;15.00;58.22
73242;BME280;65659;49.234;-2.094;2024-03-17T08:38:09;100485.60;;;15.02;58.34
73242;BME280;65659;49.234;-2.094;2024-03-17T08:40:37;100487.51;;;14.87;58.31
73242;BME280;65659;49.234;-2.094;2024-03-17T08:43:00;100494.04;;;14.91;58.35
73242;BME280;65659;49.234;-2.094;2024-03-17T08:45:26;100496.40;;;14.88;58.58
73242;BME280;65659;49.234;-2.094;2024-03-17T08:47:52;100501.60;;;14.79;58.83
73242;BME280;65659;49.234;-2.094;2024-03-17T08:50:18;100501.17;;;15.09;58.82
73242;BME280;65659;49.234;-2.094;2024-03-17T08:52:43;100511.08;;;15.27;58.60
73242;BME280;65659;49.234;-2.094;2024-03-17T08:55:10;100505.41;;;15.38;58.37
73242;BME280;65659;49.234;-2.094;2024-03-17T08:57:35;100504.75;;;15.17;58.40
73242;BME280;65659;49.234;-2.094;2024-03-17T09:00:00;100500.25;;;15.44;58.50
73242;BME280;65659;49.234;-2.094;2024-03-17T09:02:26;100505.38;;;15.33;58.39
73242;BME280;65659;49.234;-2.094;2024-03-17T09:04:52;100503.01;;;15.50;58.11
73242;BME280;65659;49.234;-2.094;2024-03-17T09:07:18;100501.31;;;15.42;57.97
73242;BME280;65659;49.234;-2.094;2024-03-17T09:09:46;100496.79;;;15.72;57.84
73242;BME280;65659;49.234;-2.094;2024-03-17T09:12:09;100498.21;;;15.73;57.83
73242;BME280;65659;49.234;-2.094;2024-03-17T09:14:35;100499.39;;;15.62;58.03
73242;BME280;65659;49.234;-2.094;2024-03-17T09:17:01;100497.83;;;15.77;57.78
73242;BME280;65659;49.234;-2.094;2024-03-17T09:19:27;100495.53;;;15.86;57.74
73242;BME280;65659;49.234;-2.094;2024-03-17T09:21:52;100500.21;;;15.67;57.79
73242;BME280;65659;49.234;-2.094;2024-03-17T09:24:17;100499.31;;;15.72;57.70
73242;BME280;65659;49.234;-2.094;2024-03-17T09:26:43;100504.89;;;15.98;57.45
73242;BME280;65659;49.234;-2.094;2024-03-17T09:29:09;100511.64;;;16.01;57.45
73242;BME280;65659;49.234;-2.094;2024-03-17T09:31:35;100506.71;;;15.53;57.91
73242;BME280;65659;49.234;-2.094;2024-03-17T09:34:00;100499.10;;;15.95;57.15
73242;BME280;65659;49.234;-2.094;2024-03-17T09:36:26;100500.38;;;16.01;57.45
73242;BME280;65659;49.234;-2.094;2024-03-17T09:38:52;100501.07;;;16.28;57.02
73242;BME280;65659;49.234;-2.094;2024-03-17T09:41:20;100498.80;;;15.71;57.08
73242;BME280;65659;49.234;-2.094;2024-03-17T09:43:43;100502.23;;;15.80;56.98
73242;BME280;65659;49.234;-2.094;2024-03-17T09:46:10;100509.09;;;16.42;56.64
73242;BME280;65659;49.234;-2.094;2024-03-17T09:48:35;100508.82;;;16.22;56.67
73242;BME280;65659;49.234;-2.094;2024-03-17T09:51:02;100513.60;;;16.07;56.38
73242;BME280;65659;49.234;-2.094;2024-03-17T09:53:28;100510.63;;;16.65;56.12
73242;BME280;65659;49.234;-2.094;2024-03-17T09:55:55;100513.83;;;16.15;56.33
73242;BME280;65659;49.234;-2.094;2024-03-17T09:58:18;100513.12;;;16.31;56.11
73242;BME280;65659;49.234;-2.094;2024-03-17T10:00:44;100516.27;;;16.47;56.19
73242;BME280;65659;49.234;-2.094;2024-03-17T10:03:10;100523.12;;;16.47;55.64
73242;BME280;65659;49.234;-2.094;2024-03-17T10:05:36;100520.66;;;16.58;55.55
73242;BME280;65659;49.234;-2.094;2024-03-17T10:08:01;100520.90;;;16.56;55.45
73242;BME280;65659;49.234;-2.094;2024-03-17T10:10:27;100523.49;;;16.69;55.51
73242;BME280;65659;49.234;-2.094;2024-03-17T10:12:53;100518.30;;;16.52;55.65
73242;BME280;65659;49.234;-2.094;2024-03-17T10:15:19;100517.49;;;16.48;55.42
73242;BME280;65659;49.234;-2.094;2024-03-17T10:17:45;100514.55;;;16.91;55.28
73242;BME280;65659;49.234;-2.094;2024-03-17T10:20:12;100514.86;;;16.97;55.01
73242;BME280;65659;49.234;-2.094;2024-03-17T10:22:36;100512.44;;;17.14;54.70
73242;BME280;65659;49.234;-2.094;2024-03-17T10:25:02;100507.43;;;16.98;54.67
73242;BME280;65659;49.234;-2.094;2024-03-17T10:27:27;100507.39;;;17.28;54.64
73242;BME280;65659;49.234;-2.094;2024-03-17T10:29:53;100509.27;;;17.39;54.52
73242;BME280;65659;49.234;-2.094;2024-03-17T10:32:19;100506.32;;;16.95;54.39
73242;BME280;65659;49.234;-2.094;2024-03-17T10:34:45;100507.51;;;17.50;54.16
73242;BME280;65659;49.234;-2.094;2024-03-17T10:37:13;100501.98;;;17.10;53.97
73242;BME280;65659;49.234;-2.094;2024-03-17T10:39:37;100511.92;;;17.24;53.89
73242;BME280;65659;49.234;-2.094;2024-03-17T10:42:03;100512.46;;;17.20;53.74
73242;BME280;65659;49.234;-2.094;2024-03-17T10:44:28;100517.80;;;17.21;53.89
73242;BME280;65659;49.234;-2.094;2024-03-17T10:46:55;100513.30;;;17.67;53.54
73242;BME280;65659;49.234;-2.094;2024-03-17T10:49:19;100514.66;;;17.35;53.39
73242;BME280;65659;49.234;-2.094;2024-03-17T10:51:47;100516.63;;;17.26;53.48
73242;BME280;65659;49.234;-2.094;2024-03-17T10:54:18;100512.80;;;17.22;53.52
73242;BME280;65659;49.234;-2.094;2024-03-17T10:56:36;100520.48;;;17.41;53.02
73242;BME280;65659;49.234;-2.094;2024-03-17T10:59:03;100530.33;;;17.33;53.12
73242;BME280;65659;49.234;-2.094;2024-03-17T11:01:33;100532.67;;;17.61;53.15
73242;BME280;65659;49.234;-2.094;2024-03-17T11:03:54;100525.80;;;17.42;52.85
73242;BME280;65659;49.234;-2.094;2024-03-17T11:06:19;100528.82;;;17.53;52.70
73242;BME280;65659;49.234;-2.094;2024-03-17T11:08:45;100523.54;;;17.34;52.98
73242;BME280;65659;49.234;-2.094;2024-03-17T11:11:11;100520.04;;;17.45;52.64
73242;BME280;65659;49.234;-2.094;2024-03-17T11:13:37;100523.52;;;17.16;52.69
73242;BME280;65659;49.234;-2.094;2024-03-17T11:16:03;100516.56;;;17.11;52.43
73242;BME280;65659;49.234;-2.094;2024-03-17T11:18:33;100518.49;;;17.05;52.59
73242;BME280;65659;49.234;-2.094;2024-03-17T11:20:58;100525.22;;;16.83;52.69
73242;BME280;65659;49.234;-2.094;2024-03-17T11:23:26;100528.88;;;16.98;52.61
73242;BME280;65659;49.234;-2.094;2024-03-17T11:25:51;100526.20;;;16.81;52.81
73242;BME280;65659;49.234;-2.094;2024-03-17T11:28:43;100522.52;;;17.03;52.86
73242;BME280;65659;49.234;-2.094;2024-03-17T11:30:42;100524.78;;;16.70;53.12
73242;BME280;65659;49.234;-2.094;2024-03-17T11:33:03;100527.75;;;16.89;53.09
73242;BME280;65659;49.234;-2.094;2024-03-17T11:35:28;100509.57;;;16.78;53.21
73242;BME280;65659;49.234;-2.094;2024-03-17T11:37:54;100530.19;;;16.49;53.67
73242;BME280;65659;49.234;-2.094;2024-03-17T11:40:24;100526.41;;;16.44;53.80
73242;BME280;65659;49.234;-2.094;2024-03-17T11:45:13;100535.59;;;16.28;53.97
73242;BME280;65659;49.234;-2.094;2024-03-17T11:47:39;100531.16;;;16.33;53.97
73242;BME280;65659;49.234;-2.094;2024-03-17T11:50:06;100531.66;;;16.37;53.99
73242;BME280;65659;49.234;-2.094;2024-03-17T11:52:29;100543.24;;;16.30;53.94
73242;BME280;65659;49.234;-2.094;2024-03-17T11:55:00;100531.14;;;16.10;53.95
73242;BME280;65659;49.234;-2.094;2024-03-17T11:57:22;100533.98;;;15.95;54.15
73242;BME280;65659;49.234;-2.094;2024-03-17T11:59:46;100533.82;;;15.94;54.20
73242;BME280;65659;49.234;-2.094;2024-03-17T12:02:17;100540.40;;;15.81;54.46
73242;BME280;65659;49.234;-2.094;2024-03-17T12:04:40;100529.29;;;15.97;54.26
73242;BME280;65659;49.234;-2.094;2024-03-17T12:07:10;100520.85;;;16.04;54.13
73242;BME280;65659;49.234;-2.094;2024-03-17T12:09:30;100517.30;;;16.38;54.39
73242;BME280;65659;49.234;-2.094;2024-03-17T12:11:59;100512.14;;;16.06;54.25
73242;BME280;65659;49.234;-2.094;2024-03-17T12:14:22;100507.15;;;16.23;54.06
73242;BME280;65659;49.234;-2.094;2024-03-17T12:16:48;100493.14;;;16.51;53.93
73242;BME280;65659;49.234;-2.094;2024-03-17T12:19:12;100500.75;;;16.66;53.51
73242;BME280;65659;49.234;-2.094;2024-03-17T12:21:41;100497.94;;;16.48;53.73
73242;BME280;65659;49.234;-2.094;2024-03-17T12:24:14;100499.43;;;16.67;53.22
73242;BME280;65659;49.234;-2.094;2024-03-17T12:26:30;100498.71;;;16.95;52.94
73242;BME280;65659;49.234;-2.094;2024-03-17T12:28:56;100495.34;;;17.07;52.34
73242;BME280;65659;49.234;-2.094;2024-03-17T12:31:21;100493.89;;;16.79;52.37
73242;BME280;65659;49.234;-2.094;2024-03-17T12:33:47;100492.35;;;16.97;51.48